Cape Cod — WBK3243 — position and weather

sailwx.info

Track history (hours):
 
Tides and Currents Weather Stations Pressure Air Temp Water Temp Dewpoint Dewpoint Depression Visibility Wind Speed Wind Dir Waves Ship Positions

Cape Cod

Owner: MORAN TOWING CORPORATION, New Canaan, CT. More information available from US FCC via Universal Licensing System and Coast Guard Vessel Documentation Center.

Last reported at 2016-May-29 16:33 UTC. Time now 2016-May-29 17:19 UTC.
Position N 39°53' W 075°11'.

Length 33 m; draft 4.8 m.

Type: Tug. MMSI: 366939770.

Date/timePositionNaut miles runAvg speedWind from/ knotsBaromVisibWave heightAir tempDewpointWater temp
2016-May-29 16:33N 39°53' W 075°11'0 0.0
2016-May-29 15:33N 39°53' W 075°11'0 0.0
2016-May-29 14:33N 39°53' W 075°11'0 0.0
2016-May-29 13:33N 39°53' W 075°11'0 0.0
2016-May-29 12:33N 39°53' W 075°11'0 0.0
2016-May-29 11:33N 39°53' W 075°11'6 5.6
2016-May-29 10:33N 39°58' W 075°07'1 1.4
2016-May-29 09:33N 39°59' W 075°05'0 0.0
2016-May-29 08:33N 39°59' W 075°05'0 0.0
2016-May-29 07:33N 39°59' W 075°05'0 0.0
2016-May-29 06:34N 39°59' W 075°05'0 0.0
2016-May-29 05:33N 39°59' W 075°05'0 0.0
2016-May-29 04:33N 39°59' W 075°05'0 0.0
2016-May-29 03:33N 39°59' W 075°05'0 0.0
2016-May-29 02:33N 39°59' W 075°05'0 0.0
2016-May-29 01:33N 39°59' W 075°05'0 0.0
2016-May-29 00:33N 39°59' W 075°05'0 0.4
2016-May-28 23:33N 39°59' W 075°06'0 0.0
2016-May-28 22:33N 39°59' W 075°06'0 0.0
2016-May-28 21:30N 39°59' W 075°06'0 0.0
2016-May-28 20:33N 39°59' W 075°06'0 0.2
2016-May-28 19:33N 39°59' W 075°06'0 0.3
2016-May-28 18:33N 39°59' W 075°06'4 3.7
2016-May-28 17:33N 39°55' W 075°08'3 2.9
2016-May-28 16:33N 39°53' W 075°11'0 0.0
2016-May-28 15:33N 39°53' W 075°11'0 0.0
2016-May-28 14:33N 39°53' W 075°11'0 0.0
2016-May-28 13:34N 39°53' W 075°11'0 0.0
2016-May-28 12:33N 39°53' W 075°11'0 0.0
2016-May-28 11:33N 39°53' W 075°11'0 0.0
2016-May-28 10:33N 39°53' W 075°11'0 0.0
2016-May-28 09:33N 39°53' W 075°11'0 0.0
2016-May-28 08:33N 39°53' W 075°11'0 0.0
2016-May-28 07:33N 39°53' W 075°11'0 0.0
2016-May-28 06:33N 39°53' W 075°11'6 5.8
2016-May-28 05:33N 39°51' W 075°18'1111.5
2016-May-28 04:33N 39°44' W 075°30'1211.5
2016-May-28 03:33N 39°33' W 075°32'1111.1
2016-May-28 02:33N 39°22' W 075°28'1212.1
2016-May-28 01:33N 39°13' W 075°18'12 5.3
2016-May-27 23:19N 39°03' W 075°10'911.4
2016-May-27 22:33N 39°10' W 075°16'1111.2
2016-May-27 21:33N 39°19' W 075°25'10 9.9
2016-May-27 20:33N 39°27' W 075°33'8 8.2
2016-May-27 19:33N 39°35' W 075°34'7 7.3
2016-May-27 18:33N 39°42' W 075°31'8 8.3
2016-May-27 17:33N 39°49' W 075°24'9 9.4
2016-May-27 16:33N 39°52' W 075°13'8 8.2
2016-May-27 15:33N 39°58' W 075°06'1 0.9
2016-May-27 14:33N 39°58' W 075°07'5 5.5
2016-May-27 13:33N 39°53' W 075°11'0 0.0
2016-May-27 12:33N 39°53' W 075°11'0 0.0
2016-May-27 11:33N 39°53' W 075°11'0 0.0
2016-May-27 10:33N 39°53' W 075°11'0 0.0
2016-May-27 09:33N 39°53' W 075°11'0 0.0
2016-May-27 08:33N 39°53' W 075°11'0 0.0
2016-May-27 07:33N 39°53' W 075°11'0 0.0
2016-May-27 06:33N 39°53' W 075°11'0 0.0
2016-May-27 05:33N 39°53' W 075°11'0 0.0
2016-May-27 04:33N 39°53' W 075°11'0 0.0
2016-May-27 03:33N 39°53' W 075°11'0 0.0
2016-May-27 02:33N 39°53' W 075°11'0 0.0
2016-May-27 01:33N 39°53' W 075°11'0 0.0
2016-May-27 00:33N 39°53' W 075°11'0 0.0
2016-May-26 23:33N 39°53' W 075°11'0 0.0
2016-May-26 22:33N 39°53' W 075°11'0 0.0
2016-May-26 21:33N 39°53' W 075°11'0 0.0
2016-May-26 20:33N 39°53' W 075°11'0 0.0
2016-May-26 19:33N 39°53' W 075°11'0 0.0
2016-May-26 18:33N 39°53' W 075°11'0 0.0
2016-May-26 17:33N 39°53' W 075°11'0 0.0
2016-May-26 16:33N 39°53' W 075°11'0 0.0
2016-May-26 15:33N 39°53' W 075°11'0 0.0
2016-May-26 14:33N 39°53' W 075°11'0 0.0
2016-May-26 13:33N 39°53' W 075°11'0 0.0
2016-May-26 12:33N 39°53' W 075°11'0 0.0
2016-May-26 11:33N 39°53' W 075°11'0 0.0
2016-May-26 10:33N 39°53' W 075°11'0 0.0
2016-May-26 09:33N 39°53' W 075°11'0 0.0
2016-May-26 08:33N 39°53' W 075°11'0 0.0
2016-May-26 07:33N 39°53' W 075°11'0 0.0
2016-May-26 06:33N 39°53' W 075°11'0 0.0
2016-May-26 05:33N 39°53' W 075°11'0 0.0
2016-May-26 04:33N 39°53' W 075°11'0 0.0
2016-May-26 03:33N 39°53' W 075°11'0 0.0
2016-May-26 02:33N 39°53' W 075°11'6 5.5
2016-May-26 01:33N 39°58' W 075°07'4 4.0
2016-May-26 00:33N 39°54' W 075°08'8 8.0
2016-May-25 23:33N 39°51' W 075°18'8 8.0
2016-May-25 22:33N 39°47' W 075°27'9 9.0
2016-May-25 21:33N 39°39' W 075°33'9 8.7
2016-May-25 20:33N 39°31' W 075°33'9 9.4
2016-May-25 19:34N 39°22' W 075°28'22 5.4
2016-May-25 15:25N 39°04' W 075°11'1012.1
2016-May-25 14:33N 39°13' W 075°18'1313.4
2016-May-25 13:33N 39°23' W 075°29'1413.7
2016-May-25 12:33N 39°37' W 075°34'1414.2
2016-May-25 11:33N 39°48' W 075°25'1211.7
2016-May-25 10:33N 39°53' W 075°11'0 0.0
2016-May-25 09:33N 39°53' W 075°11'0 0.0
2016-May-25 08:34N 39°53' W 075°11'0 0.0
2016-May-25 07:34N 39°53' W 075°11'0 0.0
2016-May-25 06:34N 39°53' W 075°11'0 0.0
2016-May-25 05:34N 39°53' W 075°11'0 0.0
2016-May-25 04:34N 39°53' W 075°11'0 0.0
2016-May-25 03:34N 39°53' W 075°11'0 0.0
2016-May-25 02:34N 39°53' W 075°11'0 0.0
2016-May-25 01:34N 39°53' W 075°11'0 0.0
2016-May-25 00:34N 39°53' W 075°11'0 0.0
2016-May-24 23:34N 39°53' W 075°11'0 0.0
2016-May-24 22:34N 39°53' W 075°11'0 0.0
2016-May-24 21:34N 39°53' W 075°11'0 0.0
2016-May-24 20:34N 39°53' W 075°11'0 0.0
2016-May-24 19:34N 39°53' W 075°11'0 0.0
2016-May-24 18:34N 39°53' W 075°11'0 0.0
2016-May-24 17:34N 39°53' W 075°11'0 0.0
2016-May-24 16:34N 39°53' W 075°11'0 0.0
2016-May-24 15:34N 39°53' W 075°11'0 0.0
2016-May-24 14:33N 39°53' W 075°11'0 0.0
2016-May-24 13:33N 39°53' W 075°11'0 0.0
2016-May-24 12:34N 39°53' W 075°11'1 0.8
2016-May-24 11:34N 39°54' W 075°12'1 0.8
2016-May-24 10:34N 39°53' W 075°11'0 0.0
2016-May-24 09:34N 39°53' W 075°11'0 0.0
2016-May-24 08:34N 39°53' W 075°11'0 0.0
2016-May-24 07:34N 39°53' W 075°11'0 0.0
2016-May-24 06:34N 39°53' W 075°11'0 0.0
2016-May-24 05:34N 39°53' W 075°11'0 0.0
2016-May-24 04:34N 39°53' W 075°11'0 0.0
2016-May-24 03:34N 39°53' W 075°11'0 0.0
2016-May-24 02:34N 39°53' W 075°11'0 0.0
2016-May-24 01:34N 39°53' W 075°11'0 0.0
2016-May-24 00:34N 39°53' W 075°11'0 0.0
2016-May-23 23:34N 39°53' W 075°11'0 0.0
2016-May-23 22:34N 39°53' W 075°11'0 0.0
2016-May-23 21:33N 39°53' W 075°11'0 0.0
2016-May-23 20:33N 39°53' W 075°11'0 0.0
2016-May-23 19:34N 39°53' W 075°11'0 0.0
2016-May-23 18:34N 39°53' W 075°11'0 0.0
2016-May-23 17:34N 39°53' W 075°11'0 0.0
2016-May-23 16:33N 39°53' W 075°11'0 0.0
2016-May-23 15:33N 39°53' W 075°11'0 0.0
2016-May-23 14:34N 39°53' W 075°11'0 0.0
2016-May-23 13:34N 39°53' W 075°11'0 0.0
2016-May-23 12:33N 39°53' W 075°11'0 0.0
2016-May-23 11:34N 39°53' W 075°11'0 0.0
2016-May-23 10:34N 39°53' W 075°11'0 0.0
2016-May-23 09:34N 39°53' W 075°11'0 0.0
2016-May-23 08:34N 39°53' W 075°11'0 0.0
2016-May-23 07:34N 39°53' W 075°11'0 0.0
2016-May-23 06:34N 39°53' W 075°11'0 0.0
2016-May-23 05:34N 39°53' W 075°11'0 0.0
2016-May-23 04:34N 39°53' W 075°11'0 0.0
2016-May-23 03:34N 39°53' W 075°11'0 0.0
2016-May-23 02:34N 39°53' W 075°11'0 0.0
2016-May-23 01:34N 39°53' W 075°11'0 0.0
2016-May-23 00:34N 39°53' W 075°11'0 0.0
2016-May-22 23:34N 39°53' W 075°11'0 0.0
2016-May-22 22:34N 39°53' W 075°11'0 0.0
2016-May-22 21:34N 39°53' W 075°11'0 0.0
2016-May-22 20:34N 39°53' W 075°11'0 0.0
2016-May-22 19:33N 39°53' W 075°11'0 0.0
2016-May-22 18:33N 39°53' W 075°11'0 0.0
2016-May-22 17:34N 39°53' W 075°11'0 0.0
2016-May-22 16:34N 39°53' W 075°11'0 0.0
2016-May-22 15:34N 39°53' W 075°11'0 0.0
2016-May-22 14:34N 39°53' W 075°11'0 0.0
2016-May-22 13:34N 39°53' W 075°11'0 0.0
2016-May-22 12:33N 39°53' W 075°11'0 0.0
2016-May-22 11:34N 39°53' W 075°11'0 0.0
2016-May-22 10:34N 39°53' W 075°11'1 1.2
2016-May-22 09:34N 39°53' W 075°09'1 1.2
2016-May-22 08:34N 39°53' W 075°11'5 4.8
2016-May-22 07:34N 39°58' W 075°08'2 1.9
2016-May-22 06:34N 39°59' W 075°06'0 0.0
2016-May-22 05:34N 39°59' W 075°06'0 0.0
2016-May-22 04:34N 39°59' W 075°06'0 0.0
2016-May-22 03:34N 39°59' W 075°06'0 0.0
2016-May-22 02:34N 39°59' W 075°06'2 2.2
2016-May-22 01:34N 39°57' W 075°08'2 2.0
2016-May-22 00:34N 39°55' W 075°08'3 2.9
2016-May-21 23:34N 39°53' W 075°11'0 0.0
2016-May-21 22:34N 39°53' W 075°11'0 0.0
2016-May-21 21:34N 39°53' W 075°11'0 0.0
2016-May-21 20:34N 39°53' W 075°11'0 0.0
2016-May-21 19:34N 39°53' W 075°11'0 0.0
2016-May-21 18:34N 39°53' W 075°11'0 0.0
2016-May-21 17:34N 39°53' W 075°11'0 0.0
2016-May-21 16:34N 39°53' W 075°11'0 0.0
2016-May-21 15:34N 39°53' W 075°11'0 0.0
2016-May-21 14:34N 39°53' W 075°11'0 0.0
2016-May-21 13:33N 39°53' W 075°11'0 0.0
2016-May-21 12:34N 39°53' W 075°11'0 0.0
2016-May-21 11:34N 39°53' W 075°11'0 0.0
2016-May-21 10:34N 39°53' W 075°11'0 0.0
2016-May-21 09:34N 39°53' W 075°11'0 0.0
2016-May-21 08:34N 39°53' W 075°11'0 0.0
2016-May-21 07:34N 39°53' W 075°11'0 0.0
2016-May-21 06:34N 39°53' W 075°11'0 0.0
2016-May-21 05:34N 39°53' W 075°11'0 0.0
2016-May-21 04:34N 39°53' W 075°11'0 0.0
2016-May-21 03:33N 39°53' W 075°11'0 0.0
2016-May-21 02:34N 39°53' W 075°11'0 0.0
2016-May-21 01:34N 39°53' W 075°11'0 0.0
2016-May-21 00:34N 39°53' W 075°11'0 0.0
2016-May-20 23:33N 39°53' W 075°11'0 0.0
2016-May-20 22:34N 39°53' W 075°11'9 8.9
2016-May-20 21:33N 39°50' W 075°22'10 9.7
2016-May-20 20:34N 39°43' W 075°30'10 9.6
2016-May-20 19:34N 39°34' W 075°33'1010.2
2016-May-20 18:34N 39°24' W 075°30'1111.5
2016-May-20 17:34N 39°15' W 075°20'10 3.3
2016-May-20 14:34N 39°07' W 075°13'9 9.4
2016-May-20 13:34N 39°15' W 075°19'9 8.5
2016-May-20 12:34N 39°21' W 075°27'9 8.8
2016-May-20 11:33N 39°28' W 075°34'1010.0
2016-May-20 10:34N 39°38' W 075°34'1111.4
2016-May-20 09:33N 39°48' W 075°26'1111.4
2016-May-20 08:34N 39°52' W 075°13'8 7.8
2016-May-20 07:33N 39°58' W 075°06'0 0.5
2016-May-20 06:33N 39°58' W 075°07'0 0.2
2016-May-20 05:33N 39°58' W 075°07'6 5.8
2016-May-20 04:33N 39°53' W 075°11'0 0.0
2016-May-20 03:34N 39°53' W 075°11'0 0.0
2016-May-20 02:33N 39°53' W 075°11'0 0.0
2016-May-20 01:33N 39°53' W 075°11'0 0.0
2016-May-20 00:34N 39°53' W 075°11'0 0.0
2016-May-19 23:34N 39°53' W 075°11'0 0.4
2016-May-19 22:34N 39°53' W 075°10'0 0.4
2016-May-19 21:34N 39°53' W 075°11'0 0.0
2016-May-19 20:34N 39°53' W 075°11'0 0.0
2016-May-19 19:34N 39°53' W 075°11'0 0.0
2016-May-19 18:34N 39°53' W 075°11'0 0.0
2016-May-19 17:34N 39°53' W 075°11'0 0.0
2016-May-19 16:34N 39°53' W 075°11'  
Track history (hours):
 
Tides and Currents Weather Stations Pressure Air Temp Water Temp Dewpoint Dewpoint Depression Visibility Wind Speed Wind Dir Waves Ship Positions

Cape Cod

Owner: MORAN TOWING CORPORATION, New Canaan, CT. More information available from US FCC via Universal Licensing System and Coast Guard Vessel Documentation Center.

Last reported at 2016-May-29 16:33 UTC. Time now 2016-May-29 17:19 UTC.
Position N 39°53' W 075°11'.

Length 33 m; draft 4.8 m.

Type: Tug. MMSI: 366939770.

Date/timePositionNaut miles runAvg speedWind from/ knotsBaromVisibWave heightAir tempDewpointWater temp
2016-May-29 16:33N 39°53' W 075°11'0 0.0
2016-May-29 15:33N 39°53' W 075°11'0 0.0
2016-May-29 14:33N 39°53' W 075°11'0 0.0
2016-May-29 13:33N 39°53' W 075°11'0 0.0
2016-May-29 12:33N 39°53' W 075°11'0 0.0
2016-May-29 11:33N 39°53' W 075°11'6 5.6
2016-May-29 10:33N 39°58' W 075°07'1 1.4
2016-May-29 09:33N 39°59' W 075°05'0 0.0
2016-May-29 08:33N 39°59' W 075°05'0 0.0
2016-May-29 07:33N 39°59' W 075°05'0 0.0
2016-May-29 06:34N 39°59' W 075°05'0 0.0
2016-May-29 05:33N 39°59' W 075°05'0 0.0
2016-May-29 04:33N 39°59' W 075°05'0 0.0
2016-May-29 03:33N 39°59' W 075°05'0 0.0
2016-May-29 02:33N 39°59' W 075°05'0 0.0
2016-May-29 01:33N 39°59' W 075°05'0 0.0
2016-May-29 00:33N 39°59' W 075°05'0 0.4
2016-May-28 23:33N 39°59' W 075°06'0 0.0
2016-May-28 22:33N 39°59' W 075°06'0 0.0
2016-May-28 21:30N 39°59' W 075°06'0 0.0
2016-May-28 20:33N 39°59' W 075°06'0 0.2
2016-May-28 19:33N 39°59' W 075°06'0 0.3
2016-May-28 18:33N 39°59' W 075°06'4 3.7
2016-May-28 17:33N 39°55' W 075°08'3 2.9
2016-May-28 16:33N 39°53' W 075°11'0 0.0
2016-May-28 15:33N 39°53' W 075°11'0 0.0
2016-May-28 14:33N 39°53' W 075°11'0 0.0
2016-May-28 13:34N 39°53' W 075°11'0 0.0
2016-May-28 12:33N 39°53' W 075°11'0 0.0
2016-May-28 11:33N 39°53' W 075°11'0 0.0
2016-May-28 10:33N 39°53' W 075°11'0 0.0
2016-May-28 09:33N 39°53' W 075°11'0 0.0
2016-May-28 08:33N 39°53' W 075°11'0 0.0
2016-May-28 07:33N 39°53' W 075°11'0 0.0
2016-May-28 06:33N 39°53' W 075°11'6 5.8
2016-May-28 05:33N 39°51' W 075°18'1111.5
2016-May-28 04:33N 39°44' W 075°30'1211.5
2016-May-28 03:33N 39°33' W 075°32'1111.1
2016-May-28 02:33N 39°22' W 075°28'1212.1
2016-May-28 01:33N 39°13' W 075°18'12 5.3
2016-May-27 23:19N 39°03' W 075°10'911.4
2016-May-27 22:33N 39°10' W 075°16'1111.2
2016-May-27 21:33N 39°19' W 075°25'10 9.9
2016-May-27 20:33N 39°27' W 075°33'8 8.2
2016-May-27 19:33N 39°35' W 075°34'7 7.3
2016-May-27 18:33N 39°42' W 075°31'8 8.3
2016-May-27 17:33N 39°49' W 075°24'9 9.4
2016-May-27 16:33N 39°52' W 075°13'8 8.2
2016-May-27 15:33N 39°58' W 075°06'1 0.9
2016-May-27 14:33N 39°58' W 075°07'5 5.5
2016-May-27 13:33N 39°53' W 075°11'0 0.0
2016-May-27 12:33N 39°53' W 075°11'0 0.0
2016-May-27 11:33N 39°53' W 075°11'0 0.0
2016-May-27 10:33N 39°53' W 075°11'0 0.0
2016-May-27 09:33N 39°53' W 075°11'0 0.0
2016-May-27 08:33N 39°53' W 075°11'0 0.0
2016-May-27 07:33N 39°53' W 075°11'0 0.0
2016-May-27 06:33N 39°53' W 075°11'0 0.0
2016-May-27 05:33N 39°53' W 075°11'0 0.0
2016-May-27 04:33N 39°53' W 075°11'0 0.0
2016-May-27 03:33N 39°53' W 075°11'0 0.0
2016-May-27 02:33N 39°53' W 075°11'0 0.0
2016-May-27 01:33N 39°53' W 075°11'0 0.0
2016-May-27 00:33N 39°53' W 075°11'0 0.0
2016-May-26 23:33N 39°53' W 075°11'0 0.0
2016-May-26 22:33N 39°53' W 075°11'0 0.0
2016-May-26 21:33N 39°53' W 075°11'0 0.0
2016-May-26 20:33N 39°53' W 075°11'0 0.0
2016-May-26 19:33N 39°53' W 075°11'0 0.0
2016-May-26 18:33N 39°53' W 075°11'0 0.0
2016-May-26 17:33N 39°53' W 075°11'0 0.0
2016-May-26 16:33N 39°53' W 075°11'0 0.0
2016-May-26 15:33N 39°53' W 075°11'0 0.0
2016-May-26 14:33N 39°53' W 075°11'0 0.0
2016-May-26 13:33N 39°53' W 075°11'0 0.0
2016-May-26 12:33N 39°53' W 075°11'0 0.0
2016-May-26 11:33N 39°53' W 075°11'0 0.0
2016-May-26 10:33N 39°53' W 075°11'0 0.0
2016-May-26 09:33N 39°53' W 075°11'0 0.0
2016-May-26 08:33N 39°53' W 075°11'0 0.0
2016-May-26 07:33N 39°53' W 075°11'0 0.0
2016-May-26 06:33N 39°53' W 075°11'0 0.0
2016-May-26 05:33N 39°53' W 075°11'0 0.0
2016-May-26 04:33N 39°53' W 075°11'0 0.0
2016-May-26 03:33N 39°53' W 075°11'0 0.0
2016-May-26 02:33N 39°53' W 075°11'6 5.5
2016-May-26 01:33N 39°58' W 075°07'4 4.0
2016-May-26 00:33N 39°54' W 075°08'8 8.0
2016-May-25 23:33N 39°51' W 075°18'8 8.0
2016-May-25 22:33N 39°47' W 075°27'9 9.0
2016-May-25 21:33N 39°39' W 075°33'9 8.7
2016-May-25 20:33N 39°31' W 075°33'9 9.4
2016-May-25 19:34N 39°22' W 075°28'22 5.4
2016-May-25 15:25N 39°04' W 075°11'1012.1
2016-May-25 14:33N 39°13' W 075°18'1313.4
2016-May-25 13:33N 39°23' W 075°29'1413.7
2016-May-25 12:33N 39°37' W 075°34'1414.2
2016-May-25 11:33N 39°48' W 075°25'1211.7
2016-May-25 10:33N 39°53' W 075°11'0 0.0
2016-May-25 09:33N 39°53' W 075°11'0 0.0
2016-May-25 08:34N 39°53' W 075°11'0 0.0
2016-May-25 07:34N 39°53' W 075°11'0 0.0
2016-May-25 06:34N 39°53' W 075°11'0 0.0
2016-May-25 05:34N 39°53' W 075°11'0 0.0
2016-May-25 04:34N 39°53' W 075°11'0 0.0
2016-May-25 03:34N 39°53' W 075°11'0 0.0
2016-May-25 02:34N 39°53' W 075°11'0 0.0
2016-May-25 01:34N 39°53' W 075°11'0 0.0
2016-May-25 00:34N 39°53' W 075°11'0 0.0
2016-May-24 23:34N 39°53' W 075°11'0 0.0
2016-May-24 22:34N 39°53' W 075°11'0 0.0
2016-May-24 21:34N 39°53' W 075°11'0 0.0
2016-May-24 20:34N 39°53' W 075°11'0 0.0
2016-May-24 19:34N 39°53' W 075°11'0 0.0
2016-May-24 18:34N 39°53' W 075°11'0 0.0
2016-May-24 17:34N 39°53' W 075°11'0 0.0
2016-May-24 16:34N 39°53' W 075°11'0 0.0
2016-May-24 15:34N 39°53' W 075°11'0 0.0
2016-May-24 14:33N 39°53' W 075°11'0 0.0
2016-May-24 13:33N 39°53' W 075°11'0 0.0
2016-May-24 12:34N 39°53' W 075°11'1 0.8
2016-May-24 11:34N 39°54' W 075°12'1 0.8
2016-May-24 10:34N 39°53' W 075°11'0 0.0
2016-May-24 09:34N 39°53' W 075°11'0 0.0
2016-May-24 08:34N 39°53' W 075°11'0 0.0
2016-May-24 07:34N 39°53' W 075°11'0 0.0
2016-May-24 06:34N 39°53' W 075°11'0 0.0
2016-May-24 05:34N 39°53' W 075°11'0 0.0
2016-May-24 04:34N 39°53' W 075°11'0 0.0
2016-May-24 03:34N 39°53' W 075°11'0 0.0
2016-May-24 02:34N 39°53' W 075°11'0 0.0
2016-May-24 01:34N 39°53' W 075°11'0 0.0
2016-May-24 00:34N 39°53' W 075°11'0 0.0
2016-May-23 23:34N 39°53' W 075°11'0 0.0
2016-May-23 22:34N 39°53' W 075°11'0 0.0
2016-May-23 21:33N 39°53' W 075°11'0 0.0
2016-May-23 20:33N 39°53' W 075°11'0 0.0
2016-May-23 19:34N 39°53' W 075°11'0 0.0
2016-May-23 18:34N 39°53' W 075°11'0 0.0
2016-May-23 17:34N 39°53' W 075°11'0 0.0
2016-May-23 16:33N 39°53' W 075°11'0 0.0
2016-May-23 15:33N 39°53' W 075°11'0 0.0
2016-May-23 14:34N 39°53' W 075°11'0 0.0
2016-May-23 13:34N 39°53' W 075°11'0 0.0
2016-May-23 12:33N 39°53' W 075°11'0 0.0
2016-May-23 11:34N 39°53' W 075°11'0 0.0
2016-May-23 10:34N 39°53' W 075°11'0 0.0
2016-May-23 09:34N 39°53' W 075°11'0 0.0
2016-May-23 08:34N 39°53' W 075°11'0 0.0
2016-May-23 07:34N 39°53' W 075°11'0 0.0
2016-May-23 06:34N 39°53' W 075°11'0 0.0
2016-May-23 05:34N 39°53' W 075°11'0 0.0
2016-May-23 04:34N 39°53' W 075°11'0 0.0
2016-May-23 03:34N 39°53' W 075°11'0 0.0
2016-May-23 02:34N 39°53' W 075°11'0 0.0
2016-May-23 01:34N 39°53' W 075°11'0 0.0
2016-May-23 00:34N 39°53' W 075°11'0 0.0
2016-May-22 23:34N 39°53' W 075°11'0 0.0
2016-May-22 22:34N 39°53' W 075°11'0 0.0
2016-May-22 21:34N 39°53' W 075°11'0 0.0
2016-May-22 20:34N 39°53' W 075°11'0 0.0
2016-May-22 19:33N 39°53' W 075°11'0 0.0
2016-May-22 18:33N 39°53' W 075°11'0 0.0
2016-May-22 17:34N 39°53' W 075°11'0 0.0
2016-May-22 16:34N 39°53' W 075°11'0 0.0
2016-May-22 15:34N 39°53' W 075°11'0 0.0
2016-May-22 14:34N 39°53' W 075°11'0 0.0
2016-May-22 13:34N 39°53' W 075°11'0 0.0
2016-May-22 12:33N 39°53' W 075°11'0 0.0
2016-May-22 11:34N 39°53' W 075°11'0 0.0
2016-May-22 10:34N 39°53' W 075°11'1 1.2
2016-May-22 09:34N 39°53' W 075°09'1 1.2
2016-May-22 08:34N 39°53' W 075°11'5 4.8
2016-May-22 07:34N 39°58' W 075°08'2 1.9
2016-May-22 06:34N 39°59' W 075°06'0 0.0
2016-May-22 05:34N 39°59' W 075°06'0 0.0
2016-May-22 04:34N 39°59' W 075°06'0 0.0
2016-May-22 03:34N 39°59' W 075°06'0 0.0
2016-May-22 02:34N 39°59' W 075°06'2 2.2
2016-May-22 01:34N 39°57' W 075°08'2 2.0
2016-May-22 00:34N 39°55' W 075°08'3 2.9
2016-May-21 23:34N 39°53' W 075°11'0 0.0
2016-May-21 22:34N 39°53' W 075°11'0 0.0
2016-May-21 21:34N 39°53' W 075°11'0 0.0
2016-May-21 20:34N 39°53' W 075°11'0 0.0
2016-May-21 19:34N 39°53' W 075°11'0 0.0
2016-May-21 18:34N 39°53' W 075°11'0 0.0
2016-May-21 17:34N 39°53' W 075°11'0 0.0
2016-May-21 16:34N 39°53' W 075°11'0 0.0
2016-May-21 15:34N 39°53' W 075°11'0 0.0
2016-May-21 14:34N 39°53' W 075°11'0 0.0
2016-May-21 13:33N 39°53' W 075°11'0 0.0
2016-May-21 12:34N 39°53' W 075°11'0 0.0
2016-May-21 11:34N 39°53' W 075°11'0 0.0
2016-May-21 10:34N 39°53' W 075°11'0 0.0
2016-May-21 09:34N 39°53' W 075°11'0 0.0
2016-May-21 08:34N 39°53' W 075°11'0 0.0
2016-May-21 07:34N 39°53' W 075°11'0 0.0
2016-May-21 06:34N 39°53' W 075°11'0 0.0
2016-May-21 05:34N 39°53' W 075°11'0 0.0
2016-May-21 04:34N 39°53' W 075°11'0 0.0
2016-May-21 03:33N 39°53' W 075°11'0 0.0
2016-May-21 02:34N 39°53' W 075°11'0 0.0
2016-May-21 01:34N 39°53' W 075°11'0 0.0
2016-May-21 00:34N 39°53' W 075°11'0 0.0
2016-May-20 23:33N 39°53' W 075°11'0 0.0
2016-May-20 22:34N 39°53' W 075°11'9 8.9
2016-May-20 21:33N 39°50' W 075°22'10 9.7
2016-May-20 20:34N 39°43' W 075°30'10 9.6
2016-May-20 19:34N 39°34' W 075°33'1010.2
2016-May-20 18:34N 39°24' W 075°30'1111.5
2016-May-20 17:34N 39°15' W 075°20'10 3.3
2016-May-20 14:34N 39°07' W 075°13'9 9.4
2016-May-20 13:34N 39°15' W 075°19'9 8.5
2016-May-20 12:34N 39°21' W 075°27'9 8.8
2016-May-20 11:33N 39°28' W 075°34'1010.0
2016-May-20 10:34N 39°38' W 075°34'1111.4
2016-May-20 09:33N 39°48' W 075°26'1111.4
2016-May-20 08:34N 39°52' W 075°13'8 7.8
2016-May-20 07:33N 39°58' W 075°06'0 0.5
2016-May-20 06:33N 39°58' W 075°07'0 0.2
2016-May-20 05:33N 39°58' W 075°07'6 5.8
2016-May-20 04:33N 39°53' W 075°11'0 0.0
2016-May-20 03:34N 39°53' W 075°11'0 0.0
2016-May-20 02:33N 39°53' W 075°11'0 0.0
2016-May-20 01:33N 39°53' W 075°11'0 0.0
2016-May-20 00:34N 39°53' W 075°11'0 0.0
2016-May-19 23:34N 39°53' W 075°11'0 0.4
2016-May-19 22:34N 39°53' W 075°10'0 0.4
2016-May-19 21:34N 39°53' W 075°11'0 0.0
2016-May-19 20:34N 39°53' W 075°11'0 0.0
2016-May-19 19:34N 39°53' W 075°11'0 0.0
2016-May-19 18:34N 39°53' W 075°11'0 0.0
2016-May-19 17:34N 39°53' W 075°11'0 0.0
2016-May-19 16:34N 39°53' W 075°11'  

Dump ship's entire track history